ジャカルタ の空港の天気 - METARとTAF

スカルノハッタ国際空港 ( WIII / CGK ) - インドネシア バンテン州、Cengkareng ( ジャカルタ近郊)
飛行場実況気象(Metar)
観測時間04/25 21:30 WIB (04/25 14:30 UTC)
風向・風速不定 1m/s
視程5000m
天気現象もや
全天の4割程度の雲 雲底高度 610m
気温26℃
湿度94%
気圧1010hPa
METARWIII 251430Z VRB02KT 5000 BR SCT020 26/25 Q1010 NOSIG
過去の天気等 Google飛行場航空写真 Wunderground天気予報

過去48時間のMETAR

飛行場予報(TAF)
発表時間: 4/25 18:00 WIB (4/25 11:00 UTC)
予報対象時間: 25日19時 WIB ~ 27日1時 WIB
風向・風速不定 1m/s
視程5,000m
天気現象弱い雨
全天の8割程度の雲 雲底高度 580m
26日9時 WIB ~ 26日11時 WIB に徐々に
風向・風速西 5m/s
視程9,000m
天気現象運行に影響にある天気現象が終了
TAF WIII 251100Z 2512/2618 VRB02KT 5000 -RA BKN019
BECMG 2602/2604 28010KT 9000 NSW